Isabella, Missouri
Current Conditions -  °F | °C
As of 7:53 AM on Wednesday 28 Jan 2015 (Local Time) from KBPK Reporting Station
Haze Haze  
Wind Chill: 28°   Ceiling: Unl
Heat Index: 35°   Visibility: 5mi
Dew Point: 31°   Wind: 9mph
Humidity: 85%   Direction: 130°SE
Pressure: 30.19"   Gusts: NA
Location:  36.58°N, 92.61°W
Report Text: KBPK 281353Z AUTO 13008KT 5SM BR CLR 02/M01 A3019 RMK AO2 SLP227 T00171006
Loading
Personal Weather Stations






























Interactive Weather Map New forecast layout! Learn more

10-Day Weather Forecast

Advertisements
Track Severe Weather on mobile